• Join FlightAware (Why Join?)
  • Login
  • US Flag 
06:16AM EST


 

Airport Tracker/Info


-or-


 

Live Flight TrackerFlight Track Log ✈ TCF3494 ✈ 23-Apr-2013 ✈ KORD - KLGA

Flight Track Log - Related Links

Times and Time Zones

All times are in EDT time to prevent confusion due to time zone crossing. See the TCF3494 flight status page for this flight to view local times or setup timezone preferences in your user account.

Time Position Orientation Groundspeed Altitude Reporting Facility
EDT Latitude Longitude Course Direction KTS MPH feet Rate Location/Type
04:19PM 41.9333 -87.9000 90° East 184 212 1,900  Level Chicago TRACON
04:20PM 41.8833 -87.8500 143° Southeast 225 259 3,900 2,715 Climbing Chicago TRACON
04:22PM 41.9432 -87.2714 95° East  Level FlightAware Approximate
04:22PM 41.8206 -87.6789 116° Southeast 295 339 10,000  Level Chicago Center
04:23PM 41.9333 -87.1145 90° East  Level FlightAware Approximate
04:23PM 41.8456 -87.5597 74° East 330 380 12,700  Level Chicago Center
04:24PM 41.9333 -86.9569 90° East  Level FlightAware Approximate
04:24PM 41.8711 -87.4344 75° East 345 397 15,000  Level Chicago Center
04:25PM 41.9333 -86.7993 90° East  Level FlightAware Approximate
04:26PM 41.8670 -87.2456 95° East  Level Estimated
04:26PM 41.9300 -87.1392 95° East 375 432 19,900  Level Chicago Center
04:27PM 41.9469 -86.9961 81° East 389 448 21,600 1,694 Climbing Chicago Center
04:28PM 41.9483 -86.8436 89° East 408 470 23,400 1,680 Climbing Chicago Center
04:29PM 41.9494 -86.6900 89° East 413 475 25,100 1,488 Climbing Chicago Center
04:31PM 41.9522 -86.5358 89° East 425 489 26,500 1,113 Climbing Chicago Center
04:32PM 41.9542 -86.3703 89° East 443 510 27,400 1,065 Climbing Chicago Center
04:33PM 41.9506 -86.1542 91° East 476 548 28,700 1,355 Climbing Chicago Center
04:34PM 41.9339 -85.9775 97° East 485 558 30,200 1,161 Climbing Chicago Center
04:35PM 41.9164 -85.7969 97° East 487 560 31,100 919 Climbing Chicago Center
04:36PM 41.8994 -85.6136 97° East 490 564 32,100 919 Climbing Chicago Center
04:37PM 41.8817 -85.4292 97° East 491 565 33,000 823 Climbing Chicago Center
04:38PM 41.8622 -85.2419 98° East 497 572 33,800 771 Climbing Chicago Center
04:39PM 41.8506 -85.0858 96° East 501 577 34,400 673 Climbing Cleveland Center
04:40PM 41.8286 -84.9003 99° East 506 582 35,000 300 Climbing Cleveland Center
04:41PM 41.8103 -84.7150 98° East 506 582 35,000  Level Cleveland Center
04:42PM 41.7919 -84.5300 98° East 506 582 35,000  Level Cleveland Center
04:43PM 41.7772 -84.3453 96° East 506 582 35,000  Level Cleveland Center
04:44PM 41.7756 -84.1417 91° East 497 572 35,000  Level Cleveland Center
04:45PM 41.7728 -83.9550 91° East 497 572 35,000  Level Cleveland Center
04:46PM 41.7717 -83.7711 90° East 497 572 35,000  Level Cleveland Center
04:47PM 41.7683 -83.5872 91° East 497 572 35,000  Level Cleveland Center
04:48PM 41.7542 -83.4028 96° East 497 572 35,000  Level Cleveland Center
04:49PM 41.7378 -83.2239 97° East 497 572 35,000  Level Cleveland Center
04:50PM 41.7189 -83.0397 98° East 497 572 35,000  Level Cleveland Center
04:51PM 41.6997 -82.8553 98° East 497 572 35,000  Level Cleveland Center
04:52PM 41.6803 -82.6739 98° East 497 572 35,000  Level Cleveland Center
04:53PM 41.6647 -82.4956 97° East 497 572 35,000  Level Cleveland Center
04:54PM 41.6447 -82.3086 98° East 503 579 35,000  Level Cleveland Center
04:56PM 41.6039 -81.9411 98° East 503 579 35,000  Level Cleveland Center
04:57PM 41.5847 -81.7769 99° East 503 579 35,000  Level Cleveland Center
04:58PM 41.5678 -81.5933 97° East 503 579 35,000  Level Cleveland Center
04:59PM 41.5464 -81.4100 99° East 503 579 35,000 150 Level Cleveland Center
05:00PM 41.5206 -81.2100 100° East 503 579 35,300 450 Climbing Cleveland Center
05:01PM 41.5025 -81.0267 97° East 503 579 35,900 650 Climbing Cleveland Center
05:02PM 41.4864 -80.8408 97° East 503 579 36,600 550 Climbing Cleveland Center
05:03PM 41.4700 -80.6553 97° East 503 579 37,000 200 Climbing Cleveland Center
05:04PM 41.4556 -80.4694 96° East 503 579 37,000  Level Cleveland Center
05:05PM 41.4406 -80.3033 97° East 503 579 37,000  Level Cleveland Center
05:06PM 41.4233 -80.1153 97° East 503 579 37,000  Level Cleveland Center
05:07PM 41.4014 -79.9161 98° East 497 572 37,000  Level Cleveland Center
05:08PM 41.3836 -79.7281 97° East 502 578 37,000  Level Cleveland Center
05:09PM 41.3675 -79.5622 97° East 502 578 37,000  Level Cleveland Center
05:10PM 41.3492 -79.3744 97° East 502 578 37,000 -300 Level Cleveland Center
05:11PM 41.3281 -79.1731 98° East 502 578 36,400 -600 Descending Cleveland Center
05:12PM 41.3069 -78.9881 99° East 502 578 35,800 -600 Descending Cleveland Center
05:13PM 41.2919 -78.8256 97° East 502 578 35,200 -600 Descending Cleveland Center
05:14PM 41.2722 -78.6408 98° East 502 578 34,600 -600 Descending Cleveland Center
05:15PM 41.2525 -78.4619 98° East 502 578 34,000 -582 Descending Cleveland Center
05:16PM 41.2269 -78.2558 99° East 508 585 33,300 -444 Descending New York Center
05:17PM 41.2039 -78.0572 99° East 508 585 33,000 -151 Descending New York Center
05:18PM 41.1819 -77.8728 99° East 508 585 33,000  Level New York Center
05:19PM 41.1564 -77.6689 99° East 508 585 33,000  Level New York Center
05:20PM 41.1314 -77.4844 100° East 508 585 33,000 -843 Level New York Center
05:21PM 41.1081 -77.3058 100° East 508 585 31,300 -2,000 Descending New York Center
05:22PM 41.0844 -77.1275 100° East 498 573 29,100 -2,085 Descending New York Center
05:23PM 41.0619 -76.9631 100° East 484 557 27,200 -1,884 Descending New York Center
05:24PM 41.0406 -76.8153 101° East 448 516 25,300 -1,785 Descending New York Center
05:25PM 41.0228 -76.6706 99° East 415 478 23,600 -1,721 Descending New York Center
05:26PM 40.9881 -76.5300 108° East 405 466 21,800 -1,736 Descending New York Center
05:27PM 40.9569 -76.3956 107° East 395 455 20,100 -1,750 Descending New York Center
05:28PM 40.9278 -76.2639 106° East 379 436 18,300 -1,678 Descending New York Center
05:29PM 40.8939 -76.1350 109° East 373 429 16,800 -1,361 Descending New York Center
05:30PM 40.8642 -76.0092 107° East 367 422 15,600 -1,180 Descending New York Center
05:31PM 40.8342 -75.8861 108° East 356 410 14,400 -1,190 Descending New York Center
05:32PM 40.8075 -75.7772 108° East 356 410 13,200 -718 Descending New York Center
05:33PM 40.7792 -75.6600 108° East 351 404 13,000 -102 Descending New York Center
05:34PM 40.7469 -75.5317 108° East 341 392 13,000  Level New York Center
05:35PM 40.7164 -75.4092 108° East 341 392 13,000  Level New York Center
05:36PM 40.6956 -75.3008 104° East 341 392 13,000 -350 Level New York Center
05:37PM 40.6692 -75.1733 105° East 341 392 12,300 -1,100 Descending New York Center
05:38PM 40.6161 -75.0825 128° Southeast 323 372 10,800 -1,160 Descending New York Center
05:39PM 40.5633 -74.9917 127° Southeast 307 353 10,000 1,109 Descending New York Center
05:40PM 40.5372 -74.9000 111° Southeast 301 346 13,000 60 Climbing New York Center
05:40PM 40.5167 -74.8167 108° East 303 349 10,100 -1,657 Descending New York TRACON
05:42PM 40.4833 -74.7167 114° Southeast 303 349 10,100 -150 Level New York TRACON
05:42PM 40.4500 -74.6167 114° Southeast 303 349 9,800 -684 Descending New York TRACON
05:43PM 40.4333 -74.5167 102° East 296 341 8,800 -1,000 Descending New York TRACON
05:45PM 40.4167 -74.4000 101° East 283 326 7,700 -900 Descending New York TRACON
05:45PM 40.4000 -74.3167 105° East 276 318 7,000 -350 Descending New York TRACON
05:47PM 40.4167 -74.2000 79° East 264 304 7,000 -571 Level New York TRACON
05:48PM 40.4667 -74.1333 45° Northeast 253 291 5,800 -887 Descending New York TRACON
05:48PM 40.5000 -74.1000 37° Northeast 206 237 5,300 -545 Descending New York TRACON
05:50PM 40.5500 -74.0667 27° Northeast 191 220 4,700 -619 Descending New York TRACON
05:51PM 40.6000 -74.0167 37° Northeast 187 215 4,000 -789 Descending New York TRACON
05:51PM 40.6333 -74.0000 21° North 170 196 3,200 -900 Descending New York TRACON
05:53PM 40.6833 -73.9667 27° Northeast 144 166 2,200 -909 Descending New York TRACON